Time;durP1;ratioP1;P1;durP2;ratioP2;P2;SDS_P1;SDS_P2;PMS_P1;PMS_P2;Temp;Humidity;BMP_temperature;BMP_pressure;BME280_temperature;BME280_humidity;BME280_pressure;Samples;Min_cycle;Max_cycle;Signal;HPM_P1;HPM_P2
2023/06/03 00:00:22;;;;;;;;;12.33;12.00;;;;;16.63;51.58;101514.91;5075032;27;46048;-57
2023/06/03 00:02:49;;;;;;;;;14.33;13.33;;;;;16.62;51.33;101515.91;5075236;27;45477;-57
2023/06/03 00:05:17;;;;;;;;;10.00;10.00;;;;;16.62;50.49;101506.97;5067153;28;45355;-58
2023/06/03 00:07:44;;;;;;;;;13.67;10.33;;;;;16.62;51.61;101510.53;5061322;28;45418;-57
2023/06/03 00:10:09;;;;;;;;;18.33;14.67;;;;;16.62;51.38;101506.97;5076275;27;46156;-57
2023/06/03 00:12:35;;;;;;;;;13.33;12.33;;;;;16.63;51.65;101508.69;5077195;27;67259;-57
2023/06/03 00:15:00;;;;;;;;;17.67;17.33;;;;;16.60;51.42;101504.38;5061548;28;45497;-58
2023/06/03 00:17:27;;;;;;;;;16.33;14.67;;;;;16.58;51.48;101505.44;5073087;28;45503;-57
2023/06/03 00:19:53;;;;;;;;;16.67;14.33;;;;;16.59;51.53;101502.66;5069867;27;46088;-57
2023/06/03 00:22:18;;;;;;;;;12.00;10.00;;;;;16.59;51.91;101517.91;5068483;28;45439;-57
2023/06/03 00:24:44;;;;;;;;;16.67;15.00;;;;;16.57;52.32;101509.97;5068769;28;45360;-57
2023/06/03 00:27:09;;;;;;;;;14.33;13.33;;;;;16.53;53.46;101501.22;5066579;28;45472;-57
2023/06/03 00:29:34;;;;;;;;;16.67;15.00;;;;;16.53;52.38;101503.03;5063328;27;67758;-58
2023/06/03 00:32:00;;;;;;;;;19.33;17.33;;;;;16.51;51.79;101497.78;5067270;27;45303;-57
2023/06/03 00:34:25;;;;;;;;;23.33;15.00;;;;;16.53;52.21;101505.72;5063007;28;63049;-58
2023/06/03 00:36:51;;;;;;;;;10.67;8.33;;;;;16.52;52.57;101504.88;5067902;28;45466;-57
2023/06/03 00:39:16;;;;;;;;;18.33;12.33;;;;;16.52;52.59;101509.38;5059557;28;74557;-57
2023/06/03 00:41:41;;;;;;;;;15.67;14.67;;;;;16.51;52.71;101497.78;5065235;28;57850;-58
2023/06/03 00:44:07;;;;;;;;;18.00;14.00;;;;;16.50;53.42;101489.81;5061058;28;67247;-60
2023/06/03 00:46:34;;;;;;;;;22.33;15.00;;;;;16.47;51.89;101496.25;5064306;27;59718;-58
2023/06/03 00:49:00;;;;;;;;;23.33;20.67;;;;;16.48;52.14;101497.13;5068590;27;46255;-58
2023/06/03 00:51:25;;;;;;;;;16.67;14.00;;;;;16.47;52.76;101496.25;5078897;27;45505;-57
2023/06/03 00:53:51;;;;;;;;;16.67;12.00;;;;;16.49;52.57;101488.97;5076589;27;45456;-57
2023/06/03 00:56:17;;;;;;;;;14.67;14.00;;;;;16.51;52.83;101486.19;5073779;28;52742;-58
2023/06/03 00:58:42;;;;;;;;;22.33;16.33;;;;;16.53;52.95;101492.28;5060726;27;46497;-57
2023/06/03 01:01:08;;;;;;;;;15.67;15.00;;;;;16.52;52.50;101488.75;5080175;27;45457;-57
2023/06/03 01:03:36;;;;;;;;;15.67;14.00;;;;;16.51;52.67;101480.81;5069573;27;47663;-57
2023/06/03 01:06:14;;;;;;;;;19.33;14.00;;;;;16.52;53.24;101485.22;5072186;28;45358;-57
2023/06/03 01:08:57;;;;;;;;;20.67;17.00;;;;;16.50;52.58;101479.06;5072324;28;46700;-57
2023/06/03 01:11:34;;;;;;;;;14.67;14.67;;;;;16.48;52.64;101479.19;5075429;27;45607;-57
2023/06/03 01:14:08;;;;;;;;;15.67;13.00;;;;;16.48;52.46;101483.69;5067238;28;45449;-57
2023/06/03 01:16:36;;;;;;;;;19.67;19.00;;;;;16.46;53.09;101477.56;5072337;28;45878;-56
2023/06/03 01:19:04;;;;;;;;;17.33;16.00;;;;;16.46;53.57;101477.56;5074019;28;46241;-56
2023/06/03 01:21:34;;;;;;;;;24.00;18.67;;;;;16.44;53.94;101474.97;5084933;27;71526;-57
2023/06/03 01:23:59;;;;;;;;;17.33;17.33;;;;;16.42;53.25;101467.97;5077655;28;45496;-57
2023/06/03 01:26:28;;;;;;;;;17.33;16.67;;;;;16.41;52.65;101469.78;5068288;27;57981;-57
2023/06/03 01:28:53;;;;;;;;;22.00;19.00;;;;;16.40;52.99;101464.50;5072409;28;46468;-57
2023/06/03 01:31:19;;;;;;;;;20.33;16.00;;;;;16.40;53.33;101469.88;5079012;27;71577;-57
2023/06/03 01:33:45;;;;;;;;;18.67;16.00;;;;;16.36;53.43;101467.41;5079394;28;45623;-57
2023/06/03 01:36:10;;;;;;;;;16.00;16.00;;;;;16.35;53.65;101472.88;5067900;27;45843;-57
2023/06/03 01:38:36;;;;;;;;;19.33;18.33;;;;;16.34;53.66;101473.84;5070880;27;69173;-56
2023/06/03 01:41:02;;;;;;;;;17.67;16.33;;;;;16.33;53.54;101467.59;5073272;28;71098;-57
2023/06/03 01:43:28;;;;;;;;;20.67;17.67;;;;;16.31;54.16;101474.91;5066548;27;61997;-56
2023/06/03 01:45:54;;;;;;;;;18.67;18.67;;;;;16.31;53.95;101474.91;5063453;28;65962;-57
2023/06/03 01:48:19;;;;;;;;;18.33;18.00;;;;;16.29;53.51;101474.13;5077873;27;45955;-57
2023/06/03 01:50:44;;;;;;;;;16.67;16.33;;;;;16.28;53.65;101471.53;5074679;27;45341;-56
2023/06/03 01:53:10;;;;;;;;;25.67;19.33;;;;;16.27;53.79;101478.75;5065676;28;45344;-57
2023/06/03 01:55:36;;;;;;;;;23.67;17.67;;;;;16.29;54.61;101470.59;5072157;27;45603;-57
2023/06/03 01:58:03;;;;;;;;;20.67;16.67;;;;;16.25;53.58;101466.38;5064798;27;45341;-57
2023/06/03 02:00:28;;;;;;;;;23.33;17.67;;;;;16.25;53.61;101472.59;5069911;28;45395;-57
2023/06/03 02:02:53;;;;;;;;;21.00;19.67;;;;;16.23;54.64;101469.16;5075348;28;45356;-57
2023/06/03 02:05:19;;;;;;;;;16.00;14.33;;;;;16.21;54.83;101463.00;5073100;27;68918;-56
2023/06/03 02:07:44;;;;;;;;;19.33;16.33;;;;;16.19;55.13;101463.13;5078468;27;46902;-56
2023/06/03 02:10:10;;;;;;;;;21.67;20.33;;;;;16.14;54.85;101470.59;5076425;28;45412;-57
2023/06/03 02:12:35;;;;;;;;;24.00;17.67;;;;;16.14;55.53;101465.22;5069387;27;65184;-57
2023/06/03 02:15:00;;;;;;;;;19.67;17.00;;;;;16.10;55.29;101470.88;5064271;27;45450;-57
2023/06/03 02:17:26;;;;;;;;;17.00;16.67;;;;;16.04;55.95;101470.28;5064042;28;46656;-57
2023/06/03 02:19:52;;;;;;;;;23.00;19.33;;;;;16.00;56.73;101465.22;5072317;28;45872;-57
2023/06/03 02:22:18;;;;;;;;;23.33;20.33;;;;;15.97;54.93;101460.03;5075520;28;45438;-57
2023/06/03 02:24:46;;;;;;;;;22.67;21.00;;;;;15.94;55.11;101463.78;5087816;27;45464;-57
2023/06/03 02:27:14;;;;;;;;;20.67;18.33;;;;;15.93;55.09;101464.75;5073831;27;47166;-57
2023/06/03 02:29:41;;;;;;;;;19.00;17.67;;;;;15.93;55.58;101464.75;5073686;28;45438;-57
2023/06/03 02:32:06;;;;;;;;;26.67;16.67;;;;;15.91;56.00;101465.81;5067161;27;45603;-57
2023/06/03 02:34:32;;;;;;;;;19.67;17.33;;;;;15.90;55.84;101458.72;5073341;28;45582;-57
2023/06/03 02:36:57;;;;;;;;;20.50;18.50;;;;;15.88;56.27;101462.34;5071508;27;56389;-57
2023/06/03 02:39:22;;;;;;;;;22.33;20.00;;;;;15.87;56.47;101460.63;5064503;28;58089;-61
2023/06/03 02:41:48;;;;;;;;;20.67;16.00;;;;;15.84;56.01;101455.44;5076536;27;45314;-56
2023/06/03 02:44:13;;;;;;;;;19.00;17.67;;;;;15.84;56.73;101468.00;5075494;27;45412;-57
2023/06/03 02:46:39;;;;;;;;;22.67;19.33;;;;;15.81;56.52;101465.50;5060553;27;45502;-57
2023/06/03 02:49:06;;;;;;;;;23.00;21.33;;;;;15.79;55.65;101462.03;5070900;27;45365;-56
2023/06/03 02:51:31;;;;;;;;;23.67;22.00;;;;;15.78;57.10;101463.00;5061387;28;45420;-56
2023/06/03 02:53:56;;;;;;;;;19.33;17.67;;;;;15.77;56.25;101464.78;5076943;27;56207;-57
2023/06/03 02:56:22;;;;;;;;;21.67;15.00;;;;;15.77;56.70;101458.56;5077373;28;45453;-56
2023/06/03 02:58:48;;;;;;;;;31.00;21.67;;;;;15.77;56.38;101461.25;5071745;28;45697;-58
2023/06/03 03:01:14;;;;;;;;;23.00;20.33;;;;;15.75;56.48;101463.16;5070729;28;45499;-56
2023/06/03 03:03:40;;;;;;;;;21.33;19.67;;;;;15.71;56.19;101451.78;5075201;27;45357;-57
2023/06/03 03:06:06;;;;;;;;;21.00;18.33;;;;;15.68;57.60;101450.16;5070318;27;45421;-57
2023/06/03 03:08:33;;;;;;;;;24.33;23.00;;;;;15.68;57.29;101455.50;5070471;28;45507;-56
2023/06/03 03:10:58;;;;;;;;;19.33;19.33;;;;;15.65;56.68;101446.78;5069226;28;45653;-57
2023/06/03 03:13:24;;;;;;;;;18.67;16.33;;;;;15.79;56.77;101454.84;5065435;28;67607;-57
2023/06/03 03:15:49;;;;;;;;;19.67;17.67;;;;;15.64;57.35;101455.78;5059158;27;66605;-56
2023/06/03 03:18:15;;;;;;;;;18.67;17.67;;;;;15.62;56.73;101455.00;5072423;28;45381;-57
2023/06/03 03:20:40;;;;;;;;;25.00;18.33;;;;;15.60;57.05;101452.41;5067830;27;45481;-56
2023/06/03 03:23:07;;;;;;;;;24.00;18.00;;;;;15.59;57.32;101460.56;5069915;27;45521;-56
2023/06/03 03:25:33;;;;;;;;;20.33;18.33;;;;;15.57;56.97;101446.41;5074952;28;45398;-56
2023/06/03 03:27:59;;;;;;;;;20.00;18.00;;;;;15.59;56.63;101447.16;5070734;27;45408;-57
2023/06/03 03:30:24;;;;;;;;;25.00;19.33;;;;;15.59;57.22;101452.50;5084311;27;45441;-57
2023/06/03 03:32:50;;;;;;;;;22.00;18.67;;;;;15.56;57.15;101456.25;5077483;27;45842;-57
2023/06/03 03:35:20;;;;;;;;;24.00;21.00;;;;;15.58;57.26;101462.38;5069310;28;45765;-57
2023/06/03 03:37:46;;;;;;;;;22.00;17.67;;;;;15.68;56.77;101454.63;5070487;27;45422;-56
2023/06/03 03:40:21;;;;;;;;;19.67;19.33;;;;;15.55;56.67;101457.19;5068996;27;45422;-57
2023/06/03 03:42:52;;;;;;;;;19.67;17.67;;;;;15.63;57.08;101452.25;5064990;28;45376;-57
2023/06/03 03:45:22;;;;;;;;;22.33;20.67;;;;;15.59;57.61;101448.03;5072232;27;46635;-57
2023/06/03 03:47:52;;;;;;;;;20.33;16.67;;;;;15.56;58.30;101450.88;5072112;27;45362;-56
2023/06/03 03:50:26;;;;;;;;;25.67;19.33;;;;;15.59;58.48;101466.81;5067434;28;45345;-57
2023/06/03 03:52:51;;;;;;;;;17.33;17.33;;;;;15.55;57.43;101460.75;5072255;28;45401;-57
2023/06/03 03:55:16;;;;;;;;;28.33;24.33;;;;;15.53;58.39;101469.84;5073830;27;49124;-57
2023/06/03 03:57:42;;;;;;;;;24.00;19.33;;;;;15.62;56.78;101468.41;5068689;28;63128;-57
2023/06/03 04:00:09;;;;;;;;;20.00;17.00;;;;;15.59;57.41;101474.84;5076129;27;63170;-57
2023/06/03 04:02:41;;;;;;;;;23.00;20.00;;;;;15.66;57.05;101470.81;5063918;27;45500;-57
2023/06/03 04:05:06;;;;;;;;;22.33;19.33;;;;;15.74;56.99;101474.88;5066226;28;45522;-57
2023/06/03 04:07:35;;;;;;;;;21.33;15.00;;;;;15.77;57.91;101471.97;5070769;28;63275;-57
2023/06/03 04:10:00;;;;;;;;;21.33;20.00;;;;;15.75;56.80;101469.41;5074160;28;45401;-57
2023/06/03 04:12:32;;;;;;;;;33.00;24.00;;;;;15.78;56.83;101474.56;5073295;28;46306;-57
2023/06/03 04:14:57;;;;;;;;;22.33;21.67;;;;;15.81;56.64;101468.19;5065256;28;46396;-57
2023/06/03 04:17:25;;;;;;;;;25.33;21.33;;;;;15.82;56.57;101470.75;5070481;27;45344;-57
2023/06/03 04:19:52;;;;;;;;;24.33;23.00;;;;;15.82;56.79;101470.75;5067806;27;45426;-57
2023/06/03 04:22:21;;;;;;;;;22.00;18.67;;;;;15.86;56.23;101464.25;5076208;27;45296;-57
2023/06/03 04:24:54;;;;;;;;;32.33;25.67;;;;;15.67;57.29;101456.47;5078109;27;45501;-57
2023/06/03 04:27:19;;;;;;;;;27.67;25.33;;;;;15.55;57.45;101462.56;5071789;28;45370;-57
2023/06/03 04:29:44;;;;;;;;;28.00;27.67;;;;;15.54;58.13;101461.69;5062703;28;63582;-57
2023/06/03 04:32:10;;;;;;;;;27.00;24.33;;;;;15.57;58.18;101466.03;5092082;27;48671;-57
2023/06/03 04:34:48;;;;;;;;;26.67;22.33;;;;;15.59;58.02;101463.25;5063212;27;46110;-57
2023/06/03 04:37:13;;;;;;;;;32.33;28.33;;;;;15.61;57.50;101462.19;5066943;28;45540;-57
2023/06/03 04:39:38;;;;;;;;;32.33;27.67;;;;;15.61;57.31;101470.22;5073632;28;55856;-57
2023/06/03 04:42:07;;;;;;;;;26.00;22.67;;;;;15.66;57.87;101476.19;5065991;27;47711;-57
2023/06/03 04:44:33;;;;;;;;;22.33;20.33;;;;;15.68;57.61;101476.97;5071485;28;45534;-57
2023/06/03 04:47:00;;;;;;;;;19.00;18.67;;;;;15.70;58.05;101474.19;5081101;27;45415;-57
2023/06/03 04:49:27;;;;;;;;;20.00;18.00;;;;;15.74;57.53;101480.22;5074293;27;45341;-57
2023/06/03 04:51:52;;;;;;;;;25.67;18.33;;;;;15.79;57.04;101480.81;5072906;27;45341;-57
2023/06/03 04:54:23;;;;;;;;;22.67;21.00;;;;;15.85;57.49;101483.13;5064532;28;45350;-57
2023/06/03 04:56:49;;;;;;;;;26.67;20.00;;;;;15.91;56.67;101488.13;5078631;27;45522;-58
2023/06/03 04:59:14;;;;;;;;;25.33;23.00;;;;;15.96;56.97;101487.84;5084745;27;45489;-57
2023/06/03 05:01:40;;;;;;;;;26.33;22.00;;;;;16.02;56.80;101487.44;5094451;27;45385;-57
2023/06/03 05:04:11;;;;;;;;;17.67;17.67;;;;;16.04;57.04;101491.75;5077489;28;47317;-57
2023/06/03 05:06:37;;;;;;;;;19.67;17.00;;;;;16.10;56.54;101497.69;5070661;28;45501;-57
2023/06/03 05:09:02;;;;;;;;;20.33;16.00;;;;;16.15;56.51;101496.47;5090820;27;45420;-57
2023/06/03 05:11:27;;;;;;;;;23.67;19.67;;;;;16.21;56.27;101504.13;5071970;28;45444;-57
2023/06/03 05:13:53;;;;;;;;;26.50;23.00;;;;;16.28;56.33;101503.75;5073765;27;46803;-58
2023/06/03 05:16:18;;;;;;;;;22.33;19.33;;;;;16.34;56.34;101500.69;5066356;27;63111;-57
2023/06/03 05:18:45;;;;;;;;;23.33;19.33;;;;;16.41;56.15;101501.16;5075427;28;61477;-56
2023/06/03 05:21:10;;;;;;;;;19.00;17.00;;;;;16.47;55.72;101501.63;5065378;28;45662;-57
2023/06/03 05:23:36;;;;;;;;;19.33;14.67;;;;;16.52;55.55;101504.88;5071984;27;74548;-57
2023/06/03 05:26:01;;;;;;;;;22.00;17.33;;;;;16.58;55.62;101498.22;5065508;28;50409;-57
2023/06/03 05:28:27;;;;;;;;;18.33;15.67;;;;;16.65;55.44;101504.94;5084058;27;45549;-57
2023/06/03 05:30:52;;;;;;;;;18.67;16.67;;;;;16.86;55.41;101499.16;5075675;28;45322;-57
2023/06/03 05:33:29;;;;;;;;;15.00;14.67;;;;;16.85;54.93;101500.09;5070827;27;46412;-57
2023/06/03 05:35:54;;;;;;;;;22.00;17.67;;;;;16.89;54.69;101501.63;5070584;28;45483;-57
2023/06/03 05:38:20;;;;;;;;;19.00;18.67;;;;;16.93;55.01;101496.94;5068740;28;45382;-57
2023/06/03 05:40:47;;;;;;;;;19.33;16.00;;;;;17.01;54.26;101494.59;5068330;27;45396;-57
2023/06/03 05:43:12;;;;;;;;;24.33;19.33;;;;;17.05;54.11;101485.38;5071834;28;47195;-57
2023/06/03 05:45:38;;;;;;;;;23.67;15.33;;;;;17.11;54.08;101486.81;5077724;27;72835;-57
2023/06/03 05:48:03;;;;;;;;;20.33;16.67;;;;;17.31;53.52;101491.72;5064992;27;59705;-57
2023/06/03 05:50:29;;;;;;;;;18.67;16.00;;;;;17.30;54.00;101497.16;5072353;27;45420;-57
2023/06/03 05:52:55;;;;;;;;;19.33;17.67;;;;;17.35;53.61;101484.28;5068972;27;67428;-57
2023/06/03 05:55:20;;;;;;;;;20.00;14.00;;;;;17.43;53.15;101492.69;5069098;27;45450;-57
2023/06/03 05:57:46;;;;;;;;;19.00;15.33;;;;;17.49;53.36;101492.25;5089607;27;45812;-57
2023/06/03 06:00:12;;;;;;;;;26.00;17.00;;;;;17.54;53.30;101491.97;5064931;27;69607;-57
2023/06/03 06:02:37;;;;;;;;;28.00;19.67;;;;;17.58;52.74;101498.00;5076013;28;47213;-57
2023/06/03 06:05:03;;;;;;;;;16.33;15.00;;;;;17.63;52.84;101496.69;5079327;27;65461;-57
2023/06/03 06:07:29;;;;;;;;;22.67;20.33;;;;;17.68;52.71;101499.09;5064405;28;45704;-56
2023/06/03 06:09:54;;;;;;;;;21.33;19.00;;;;;17.71;52.44;101503.41;5071499;28;45813;-57
2023/06/03 06:12:20;;;;;;;;;24.33;18.00;;;;;17.74;52.47;101501.31;5069074;27;46928;-57
2023/06/03 06:14:45;;;;;;;;;19.67;17.67;;;;;17.78;52.03;101504.66;5071138;27;45427;-57
2023/06/03 06:17:10;;;;;;;;;18.67;14.33;;;;;17.86;51.89;101505.03;5063860;27;64422;-57
2023/06/03 06:19:36;;;;;;;;;16.33;15.00;;;;;18.01;52.04;101509.34;5065155;28;45392;-56
2023/06/03 06:22:02;;;;;;;;;17.00;14.67;;;;;18.15;52.12;101508.38;5069393;28;46540;-58
2023/06/03 06:24:27;;;;;;;;;19.33;17.33;;;;;18.33;51.44;101511.59;5063287;28;45423;-57
2023/06/03 06:26:53;;;;;;;;;18.67;16.67;;;;;18.52;51.21;101511.13;5062743;28;56721;-57
2023/06/03 06:29:18;;;;;;;;;20.67;18.00;;;;;18.72;50.46;101518.72;5074172;27;53810;-56
2023/06/03 06:31:44;;;;;;;;;20.67;16.00;;;;;18.94;50.32;101512.63;5087353;27;46171;-56
2023/06/03 06:34:09;;;;;;;;;15.00;13.67;;;;;19.52;49.67;101518.16;5072906;28;45267;-57
2023/06/03 06:36:42;;;;;;;;;18.33;16.00;;;;;20.96;47.53;101518.50;5077965;27;45450;-57
2023/06/03 06:39:34;;;;;;;;;19.00;16.33;;;;;22.80;45.39;101504.50;5049454;28;45674;-57
2023/06/03 06:42:10;;;;;;;;;18.33;17.67;;;;;24.30;43.36;101503.22;5058348;28;46094;-56
2023/06/03 06:44:43;;;;;;;;;21.67;16.67;;;;;25.44;40.41;101502.81;5068827;27;45502;-57
2023/06/03 06:47:10;;;;;;;;;19.33;15.67;;;;;26.50;38.52;101503.63;5071325;27;45426;-57
2023/06/03 06:49:36;;;;;;;;;14.33;13.33;;;;;27.31;37.02;101504.84;5073807;27;45445;-57
2023/06/03 06:52:01;;;;;;;;;17.00;16.67;;;;;28.03;33.42;101515.06;5071099;27;59702;-57
2023/06/03 06:54:27;;;;;;;;;16.00;14.67;;;;;28.65;34.82;101509.84;5072460;28;45792;-57
2023/06/03 06:56:52;;;;;;;;;15.67;14.00;;;;;29.25;33.50;101523.88;5073821;27;45643;-57
2023/06/03 06:59:17;;;;;;;;;15.00;15.00;;;;;29.85;31.42;101522.16;5065736;27;53985;-57
2023/06/03 07:01:44;;;;;;;;;13.00;11.67;;;;;30.43;29.58;101524.25;5062829;28;67791;-57
2023/06/03 07:04:09;;;;;;;;;12.00;11.67;;;;;31.11;31.12;101516.66;5060630;28;45935;-57
2023/06/03 07:06:36;;;;;;;;;21.33;15.33;;;;;31.86;29.87;101521.75;5070592;27;45598;-57
2023/06/03 07:09:01;;;;;;;;;13.00;10.00;;;;;32.40;25.71;101516.56;5064910;27;45590;-57
2023/06/03 07:11:27;;;;;;;;;13.33;11.00;;;;;32.90;27.00;101517.22;5069714;28;51794;-57
2023/06/03 07:13:52;;;;;;;;;12.33;11.00;;;;;33.71;27.99;101520.91;5067909;28;45508;-57
2023/06/03 07:16:18;;;;;;;;;14.33;14.33;;;;;34.32;25.58;101515.28;5065180;27;45337;-57
2023/06/03 07:18:43;;;;;;;;;12.33;11.00;;;;;34.83;26.76;101519.09;5066297;28;45513;-61
2023/06/03 07:21:09;;;;;;;;;11.00;9.33;;;;;35.33;24.46;101524.75;5067207;28;70070;-61
2023/06/03 07:23:34;;;;;;;;;15.33;14.00;;;;;35.57;24.98;101519.47;5066376;28;69274;-60
2023/06/03 07:26:00;;;;;;;;;13.67;11.67;;;;;35.97;24.63;101521.00;5068814;28;45543;-60
2023/06/03 07:28:30;;;;;;;;;13.33;11.00;;;;;36.48;24.22;101517.03;5066066;28;45961;-61
2023/06/03 07:30:58;;;;;;;;;15.00;13.67;;;;;36.75;21.86;101520.28;5076688;28;48028;-60
2023/06/03 07:33:27;;;;;;;;;13.00;11.33;;;;;36.82;20.85;101513.78;5069083;27;46529;-61
2023/06/03 07:35:57;;;;;;;;;13.33;10.33;;;;;37.27;22.63;101518.88;5059751;27;45549;-59
2023/06/03 07:38:38;;;;;;;;;8.50;8.50;;;;;38.03;22.04;101519.06;5067521;27;46447;-62
2023/06/03 07:41:04;;;;;;;;;9.67;9.67;;;;;38.53;21.06;101514.84;5070246;28;46211;-59
2023/06/03 07:43:30;;;;;;;;;12.33;10.33;;;;;38.77;20.84;101513.94;5061150;27;45911;-62
2023/06/03 07:45:55;;;;;;;;;15.00;10.33;;;;;39.12;20.19;101524.00;5068380;27;63282;-62
2023/06/03 07:48:21;;;;;;;;;9.50;9.50;;;;;39.23;19.23;101527.84;5071846;27;45576;-62
2023/06/03 07:50:49;;;;;;;;;7.50;7.50;;;;;39.56;20.04;101528.91;5063135;27;46380;-62
2023/06/03 07:53:23;;;;;;;;;11.00;9.00;;;;;40.17;19.35;101529.03;5066611;27;45712;-61
2023/06/03 07:55:50;;;;;;;;;14.00;9.50;;;;;40.62;18.39;101529.88;5063069;27;45495;-62
2023/06/03 07:58:16;;;;;;;;;9.33;9.00;;;;;40.58;18.50;101518.38;5063523;28;45655;-59
2023/06/03 08:00:59;;;;;;;;;10.00;10.00;;;;;40.99;18.66;101521.63;5076881;27;45390;-61
2023/06/03 08:03:26;;;;;;;;;10.33;9.00;;;;;41.34;17.52;101523.03;5048765;27;46406;-61
2023/06/03 08:05:51;;;;;;;;;11.67;10.67;;;;;41.55;17.59;101526.03;5070190;28;64569;-62
2023/06/03 08:08:32;;;;;;;;;9.67;9.67;;;;;41.65;17.14;101523.28;5064323;28;45624;-61
2023/06/03 08:10:57;;;;;;;;;13.00;11.00;;;;;41.82;16.56;101523.13;5073139;27;45413;-61
2023/06/03 08:13:22;;;;;;;;;12.33;11.00;;;;;42.27;16.89;101518.06;5078152;27;45433;-61
2023/06/03 08:15:48;;;;;;;;;8.00;8.00;;;;;42.70;16.64;101512.34;5071313;28;61612;-61
2023/06/03 08:18:43;;;;;;;;;7.00;7.00;;;;;43.17;16.76;101510.44;5067082;28;45564;-61
2023/06/03 08:21:09;;;;;;;;;9.00;9.00;;;;;43.58;15.96;101517.97;5083147;27;45858;-61
2023/06/03 08:23:36;;;;;;;;;10.67;9.00;;;;;43.88;15.37;101519.84;5077784;27;45436;-62
2023/06/03 08:26:02;;;;;;;;;8.00;7.00;;;;;44.00;14.66;101516.75;5073760;27;45315;-62
2023/06/03 08:28:27;;;;;;;;;10.67;9.33;;;;;44.04;15.21;101511.41;5066737;27;45345;-62
2023/06/03 08:30:53;;;;;;;;;9.00;9.00;;;;;44.13;15.67;101511.66;5074275;28;75827;-62
2023/06/03 08:33:19;;;;;;;;;12.67;10.00;;;;;44.77;13.03;101509.94;5072887;27;45525;-62
2023/06/03 08:35:44;;;;;;;;;8.67;7.33;;;;;45.18;14.72;101504.03;5065411;27;47224;-61
2023/06/03 08:38:10;;;;;;;;;10.00;9.00;;;;;45.69;13.96;101508.31;5072995;28;45261;-61
2023/06/03 08:40:40;;;;;;;;;8.33;7.67;;;;;46.10;13.92;101508.97;5068275;28;46484;-62
2023/06/03 08:43:06;;;;;;;;;9.00;7.33;;;;;46.63;13.43;101505.16;5083258;27;45600;-62
2023/06/03 08:45:45;;;;;;;;;6.75;6.00;;;;;46.94;13.17;101507.47;5069330;28;45532;-63
2023/06/03 08:48:23;;;;;;;;;9.00;9.00;;;;;47.11;11.85;101504.13;5068772;27;45528;-67
2023/06/03 08:50:50;;;;;;;;;7.00;5.00;;;;;46.87;12.73;101503.09;5076147;27;47421;-65
2023/06/03 08:53:15;;;;;;;;;11.00;9.33;;;;;46.36;12.31;101515.09;5060606;27;45437;-66
2023/06/03 08:55:41;;;;;;;;;14.00;9.00;;;;;45.79;12.53;101512.97;5080906;27;46071;-66
2023/06/03 08:58:21;;;;;;;;;9.50;7.00;;;;;45.87;13.51;101503.88;5078012;27;45747;-65
2023/06/03 09:00:47;;;;;;;;;7.33;7.33;;;;;46.39;12.56;101504.09;5068131;28;45700;-66
2023/06/03 09:03:13;;;;;;;;;8.50;7.25;;;;;46.58;12.31;101503.25;5063948;27;45648;-66
2023/06/03 09:05:38;;;;;;;;;8.00;8.00;;;;;46.82;12.26;101493.88;5072447;27;46652;-66
2023/06/03 09:08:05;;;;;;;;;8.33;7.67;;;;;46.82;12.30;101491.06;5068837;28;63693;-66
2023/06/03 09:10:31;;;;;;;;;10.00;8.00;;;;;46.82;12.11;101491.06;5086298;27;48776;-67
2023/06/03 09:12:58;;;;;;;;;8.00;6.67;;;;;46.87;12.03;101491.84;5071539;28;45481;-63
2023/06/03 09:15:24;;;;;;;;;10.33;7.67;;;;;47.04;11.96;101494.13;5067353;27;45443;-67
2023/06/03 09:17:50;;;;;;;;;6.33;6.33;;;;;47.09;11.40;101487.53;5067852;27;45861;-67
2023/06/03 09:20:16;;;;;;;;;10.00;9.00;;;;;47.28;11.68;101493.13;5069959;28;48456;-66
2023/06/03 09:22:43;;;;;;;;;8.00;6.33;;;;;47.19;11.76;101486.53;5092712;27;45346;-67
2023/06/03 09:25:09;;;;;;;;;10.33;9.33;;;;;47.18;11.46;101477.25;5070192;28;45384;-67
2023/06/03 09:27:35;;;;;;;;;7.00;5.67;;;;;46.85;11.48;101487.66;5064855;27;45440;-67
2023/06/03 09:30:04;;;;;;;;;11.67;9.00;;;;;46.58;11.01;101483.56;5063292;27;46577;-67
2023/06/03 09:32:31;;;;;;;;;8.33;8.00;;;;;46.21;10.96;101491.66;5046403;27;45635;-66
2023/06/03 09:34:57;;;;;;;;;9.00;7.00;;;;;45.94;11.65;101488.66;5084650;27;45261;-67
2023/06/03 09:37:22;;;;;;;;;9.67;8.00;;;;;46.08;11.74;101487.63;5068345;27;45416;-67
2023/06/03 09:39:48;;;;;;;;;7.00;7.00;;;;;46.14;11.33;101494.03;5064787;27;69131;-67
2023/06/03 09:42:15;;;;;;;;;6.33;6.33;;;;;46.20;11.83;101494.78;5072526;27;45494;-62
2023/06/03 09:44:55;;;;;;;;;7.33;6.67;;;;;46.44;11.61;101505.97;5065121;27;45483;-67
2023/06/03 09:47:21;;;;;;;;;9.33;7.33;;;;;46.67;11.05;101503.44;5076268;27;45550;-66
2023/06/03 09:50:02;;;;;;;;;9.00;8.67;;;;;47.05;11.72;101492.97;5048772;28;65943;-66
2023/06/03 09:52:35;;;;;;;;;9.00;8.67;;;;;47.49;10.61;101490.78;5081743;27;45417;-63
2023/06/03 09:55:06;;;;;;;;;6.67;5.67;;;;;47.78;10.64;101485.97;5067493;27;45370;-66
2023/06/03 09:57:32;;;;;;;;;7.00;7.00;;;;;47.70;10.25;101493.19;5062221;27;45564;-66
2023/06/03 10:00:04;;;;;;;;;7.00;7.00;;;;;47.59;10.14;101498.19;5079708;27;46283;-66
2023/06/03 10:02:29;;;;;;;;;8.00;7.33;;;;;47.47;10.71;101507.16;5065726;27;45574;-66
2023/06/03 10:04:54;;;;;;;;;10.00;8.67;;;;;47.62;10.92;101491.09;5081979;27;45399;-67
2023/06/03 10:07:20;;;;;;;;;6.67;5.33;;;;;48.00;10.30;101499.34;5075193;27;45703;-66
2023/06/03 10:09:47;;;;;;;;;9.33;7.67;;;;;48.09;10.49;101491.81;5062659;27;46449;-67
2023/06/03 10:12:13;;;;;;;;;8.33;6.67;;;;;47.85;10.14;101495.72;5084368;27;45551;-68
2023/06/03 10:14:49;;;;;;;;;9.33;8.00;;;;;47.75;9.89;101498.72;5065314;27;45791;-68
2023/06/03 10:17:16;;;;;;;;;9.00;9.00;;;;;47.92;10.75;101488.81;5070040;27;45708;-67
2023/06/03 10:19:43;;;;;;;;;11.67;11.67;;;;;48.63;10.19;101489.22;5063194;27;47087;-69
2023/06/03 10:22:11;;;;;;;;;8.00;6.33;;;;;49.34;10.05;101491.34;5065563;28;45423;-68
2023/06/03 10:24:38;;;;;;;;;11.33;9.00;;;;;49.60;9.86;101486.94;5064793;28;45394;-69
2023/06/03 10:27:04;;;;;;;;;7.67;7.00;;;;;49.99;9.74;101483.31;5088474;27;45529;-70
2023/06/03 10:29:30;;;;;;;;;9.00;7.33;;;;;50.62;9.93;101491.50;5073747;28;45469;-60
2023/06/03 10:31:57;;;;;;;;;7.67;7.67;;;;;50.82;9.31;101491.19;5084065;27;45432;-58
2023/06/03 10:34:23;;;;;;;;;7.00;6.00;;;;;51.35;8.58;101486.22;5071188;28;45528;-59
2023/06/03 10:36:55;;;;;;;;;7.67;7.67;;;;;51.36;8.47;101474.56;5078300;27;45689;-60
2023/06/03 10:39:26;;;;;;;;;9.00;7.67;;;;;51.51;8.40;101480.84;5068764;27;45523;-59
2023/06/03 10:41:59;;;;;;;;;6.00;6.00;;;;;51.28;8.46;101469.75;5045477;28;45486;-59
2023/06/03 10:44:25;;;;;;;;;6.33;6.33;;;;;51.17;9.03;101474.13;5063615;28;45453;-61
2023/06/03 10:46:59;;;;;;;;;9.00;8.00;;;;;51.71;8.46;101467.88;5086168;27;45376;-61
2023/06/03 10:49:27;;;;;;;;;8.00;8.00;;;;;52.26;8.06;101481.06;5076679;27;46323;-60
2023/06/03 10:52:14;;;;;;;;;9.00;9.00;;;;;52.14;8.06;101480.16;5069760;27;45480;-60
2023/06/03 10:55:21;;;;;;;;;8.33;8.00;;;;;52.50;8.50;101475.88;5066665;27;45403;-61
2023/06/03 10:57:50;;;;;;;;;9.67;8.00;;;;;52.75;7.67;101473.94;5053184;28;45567;-61
2023/06/03 11:00:53;;;;;;;;;9.67;9.67;;;;;52.76;6.50;101482.16;5064192;27;46777;-60
2023/06/03 11:03:23;;;;;;;;;7.00;7.00;;;;;52.23;7.84;101478.94;5050378;28;45599;-61
2023/06/03 11:05:49;;;;;;;;;9.00;7.67;;;;;52.45;7.16;101476.91;5062522;28;45475;-60
2023/06/03 11:08:53;;;;;;;;;7.67;7.67;;;;;53.05;7.64;101488.84;5075449;27;45616;-59
2023/06/03 11:11:44;;;;;;;;;6.67;6.67;;;;;53.17;6.31;101464.50;5072137;28;45508;-61
2023/06/03 11:14:40;;;;;;;;;5.33;5.33;;;;;53.01;6.30;101476.53;5061601;28;45664;-61
2023/06/03 11:17:06;;;;;;;;;11.00;8.00;;;;;53.14;6.88;101474.56;5069990;28;45575;-61